Chickasha, Oklahoma
Current Conditions -  °F | °C
As of 12:15 PM on Friday 19 Dec 2014 (Local Time) from KCHK Reporting Station
Scattered Clouds Scattered Clouds  
Wind Chill: 34°   Ceiling: Unl
Heat Index: 39°   Visibility: 7mi
Dew Point: 39°   Wind: 7mph
Humidity: 100%   Direction: 30°NNE
Pressure: 30.21"   Gusts: NA
Location:  35.05°N, 97.94°W
Report Text: KCHK 191815Z AUTO 03006KT 7SM SCT007 04/04 A3021 RMK AO2
Loading
Personal Weather Stations






























Interactive Weather Map New forecast layout! Learn more

10-Day Weather Forecast

Advertisements
Track Severe Weather on mobile